sensor_id;sensor_type;location;lat;lon;timestamp;pressure;altitude;pressure_sealevel;temperature;humidity
62600;BME280;48671;48.922;2.346;2024-02-23T00:00:04;99354.44;;;7.47;64.34
62600;BME280;48671;48.922;2.346;2024-02-23T00:02:31;99353.75;;;7.44;64.47
62600;BME280;48671;48.922;2.346;2024-02-23T00:04:57;99369.50;;;7.39;64.62
62600;BME280;48671;48.922;2.346;2024-02-23T00:07:28;99355.38;;;7.27;64.84
62600;BME280;48671;48.922;2.346;2024-02-23T00:09:54;99372.88;;;7.22;65.31
62600;BME280;48671;48.922;2.346;2024-02-23T00:12:19;99380.63;;;7.22;65.49
62600;BME280;48671;48.922;2.346;2024-02-23T00:14:45;99402.22;;;7.21;64.93
62600;BME280;48671;48.922;2.346;2024-02-23T00:17:10;99398.59;;;7.44;64.97
62600;BME280;48671;48.922;2.346;2024-02-23T00:19:36;99384.19;;;7.39;65.18
62600;BME280;48671;48.922;2.346;2024-02-23T00:22:02;99391.53;;;7.29;65.54
62600;BME280;48671;48.922;2.346;2024-02-23T00:24:27;99386.72;;;7.21;66.07
62600;BME280;48671;48.922;2.346;2024-02-23T00:26:53;99399.94;;;7.34;65.95
62600;BME280;48671;48.922;2.346;2024-02-23T00:29:19;99410.13;;;7.37;65.81
62600;BME280;48671;48.922;2.346;2024-02-23T00:31:45;99411.34;;;7.30;65.84
62600;BME280;48671;48.922;2.346;2024-02-23T00:34:11;99407.97;;;7.28;65.97
62600;BME280;48671;48.922;2.346;2024-02-23T00:36:42;99414.81;;;7.29;65.83
62600;BME280;48671;48.922;2.346;2024-02-23T00:39:08;99412.72;;;7.18;65.72
62600;BME280;48671;48.922;2.346;2024-02-23T00:41:34;99400.63;;;7.19;66.26
62600;BME280;48671;48.922;2.346;2024-02-23T00:44:01;99393.88;;;7.16;65.99
62600;BME280;48671;48.922;2.346;2024-02-23T00:46:26;99394.97;;;7.11;65.66
62600;BME280;48671;48.922;2.346;2024-02-23T00:48:51;99392.38;;;7.11;66.08
62600;BME280;48671;48.922;2.346;2024-02-23T00:51:17;99411.19;;;7.14;66.30
62600;BME280;48671;48.922;2.346;2024-02-23T00:53:42;99402.44;;;6.98;66.24
62600;BME280;48671;48.922;2.346;2024-02-23T00:56:07;99396.50;;;6.96;66.63
62600;BME280;48671;48.922;2.346;2024-02-23T00:58:33;99413.75;;;6.95;67.38
62600;BME280;48671;48.922;2.346;2024-02-23T01:00:59;99398.59;;;6.88;67.34
62600;BME280;48671;48.922;2.346;2024-02-23T01:03:25;99412.94;;;6.95;67.29
62600;BME280;48671;48.922;2.346;2024-02-23T01:05:50;99385.09;;;6.81;68.09
62600;BME280;48671;48.922;2.346;2024-02-23T01:08:15;99398.72;;;6.85;67.88
62600;BME280;48671;48.922;2.346;2024-02-23T01:10:41;99398.91;;;6.80;67.82
62600;BME280;48671;48.922;2.346;2024-02-23T01:13:06;99403.34;;;6.78;68.15
62600;BME280;48671;48.922;2.346;2024-02-23T01:15:31;99396.34;;;6.80;68.93
62600;BME280;48671;48.922;2.346;2024-02-23T01:17:57;99402.56;;;6.76;68.47
62600;BME280;48671;48.922;2.346;2024-02-23T01:20:22;99406.75;;;6.78;68.89
62600;BME280;48671;48.922;2.346;2024-02-23T01:22:47;99414.66;;;6.75;69.15
62600;BME280;48671;48.922;2.346;2024-02-23T01:25:13;99411.94;;;6.78;69.22
62600;BME280;48671;48.922;2.346;2024-02-23T01:27:41;99388.94;;;6.72;69.09
62600;BME280;48671;48.922;2.346;2024-02-23T01:30:06;99388.19;;;6.70;69.81
62600;BME280;48671;48.922;2.346;2024-02-23T01:32:32;99372.44;;;6.75;69.37
62600;BME280;48671;48.922;2.346;2024-02-23T01:34:57;99358.81;;;6.71;69.23
62600;BME280;48671;48.922;2.346;2024-02-23T01:37:22;99380.91;;;6.78;69.43
62600;BME280;48671;48.922;2.346;2024-02-23T01:39:48;99375.09;;;6.73;69.17
62600;BME280;48671;48.922;2.346;2024-02-23T01:42:13;99382.56;;;6.79;69.48
62600;BME280;48671;48.922;2.346;2024-02-23T01:44:38;99377.63;;;6.75;69.85
62600;BME280;48671;48.922;2.346;2024-02-23T01:47:04;99370.25;;;6.66;69.96
62600;BME280;48671;48.922;2.346;2024-02-23T01:49:29;99380.91;;;6.78;70.01
62600;BME280;48671;48.922;2.346;2024-02-23T01:52:00;99381.97;;;6.74;69.61
62600;BME280;48671;48.922;2.346;2024-02-23T01:54:26;99381.81;;;6.77;70.66
62600;BME280;48671;48.922;2.346;2024-02-23T01:56:54;99370.78;;;6.74;69.77
62600;BME280;48671;48.922;2.346;2024-02-23T01:59:20;99353.72;;;6.70;69.79
62600;BME280;48671;48.922;2.346;2024-02-23T02:01:45;99375.09;;;6.73;69.61
62600;BME280;48671;48.922;2.346;2024-02-23T02:04:10;99355.53;;;6.68;70.19
62600;BME280;48671;48.922;2.346;2024-02-23T02:06:36;99350.84;;;6.76;69.98
62600;BME280;48671;48.922;2.346;2024-02-23T02:09:01;99358.75;;;6.73;69.60
62600;BME280;48671;48.922;2.346;2024-02-23T02:11:27;99363.47;;;6.84;69.61
62600;BME280;48671;48.922;2.346;2024-02-23T02:13:52;99357.06;;;6.72;69.73
62600;BME280;48671;48.922;2.346;2024-02-23T02:16:17;99340.50;;;6.76;69.71
62600;BME280;48671;48.922;2.346;2024-02-23T02:18:43;99353.44;;;6.76;70.01
62600;BME280;48671;48.922;2.346;2024-02-23T02:21:09;99347.56;;;6.72;70.03
62600;BME280;48671;48.922;2.346;2024-02-23T02:23:35;99339.47;;;6.61;70.09
62600;BME280;48671;48.922;2.346;2024-02-23T02:26:02;99332.34;;;6.66;69.77
62600;BME280;48671;48.922;2.346;2024-02-23T02:28:27;99340.78;;;6.70;69.72
62600;BME280;48671;48.922;2.346;2024-02-23T02:30:53;99356.44;;;6.86;69.69
62600;BME280;48671;48.922;2.346;2024-02-23T02:33:18;99346.94;;;6.86;69.68
62600;BME280;48671;48.922;2.346;2024-02-23T02:35:44;99354.50;;;6.91;69.54
62600;BME280;48671;48.922;2.346;2024-02-23T02:38:10;99340.81;;;6.89;69.12
62600;BME280;48671;48.922;2.346;2024-02-23T02:40:36;99330.41;;;6.90;69.25
62600;BME280;48671;48.922;2.346;2024-02-23T02:43:01;99323.25;;;6.95;69.45
62600;BME280;48671;48.922;2.346;2024-02-23T02:45:27;99316.63;;;6.90;68.91
62600;BME280;48671;48.922;2.346;2024-02-23T02:47:52;99311.31;;;6.93;69.05
62600;BME280;48671;48.922;2.346;2024-02-23T02:50:17;99315.91;;;7.05;68.77
62600;BME280;48671;48.922;2.346;2024-02-23T02:52:43;99308.38;;;7.00;69.04
62600;BME280;48671;48.922;2.346;2024-02-23T02:55:08;99294.69;;;6.98;68.80
62600;BME280;48671;48.922;2.346;2024-02-23T02:57:34;99288.94;;;6.92;68.84
62600;BME280;48671;48.922;2.346;2024-02-23T03:00:04;99300.47;;;7.03;69.03
62600;BME280;48671;48.922;2.346;2024-02-23T03:02:33;99299.69;;;7.01;68.96
62600;BME280;48671;48.922;2.346;2024-02-23T03:04:58;99304.66;;;7.06;69.00
62600;BME280;48671;48.922;2.346;2024-02-23T03:07:24;99274.97;;;6.96;69.03
62600;BME280;48671;48.922;2.346;2024-02-23T03:09:49;99277.75;;;7.10;68.50
62600;BME280;48671;48.922;2.346;2024-02-23T03:12:16;99264.72;;;6.94;68.57
62600;BME280;48671;48.922;2.346;2024-02-23T03:14:41;99295.16;;;7.07;69.03
62600;BME280;48671;48.922;2.346;2024-02-23T03:17:07;99288.44;;;7.02;68.46
62600;BME280;48671;48.922;2.346;2024-02-23T03:19:32;99270.16;;;6.88;68.77
62600;BME280;48671;48.922;2.346;2024-02-23T03:21:58;99258.84;;;6.91;69.13
62600;BME280;48671;48.922;2.346;2024-02-23T03:24:23;99272.25;;;6.99;69.18
62600;BME280;48671;48.922;2.346;2024-02-23T03:26:48;99248.50;;;6.91;69.18
62600;BME280;48671;48.922;2.346;2024-02-23T03:29:14;99238.34;;;6.86;68.52
62600;BME280;48671;48.922;2.346;2024-02-23T03:31:39;99244.69;;;6.80;69.07
62600;BME280;48671;48.922;2.346;2024-02-23T03:34:05;99241.22;;;6.80;69.36
62600;BME280;48671;48.922;2.346;2024-02-23T03:36:30;99242.28;;;6.76;69.18
62600;BME280;48671;48.922;2.346;2024-02-23T03:38:55;99257.38;;;6.85;69.27
62600;BME280;48671;48.922;2.346;2024-02-23T03:41:21;99218.88;;;6.79;69.28
62600;BME280;48671;48.922;2.346;2024-02-23T03:43:46;99214.78;;;6.75;69.07
62600;BME280;48671;48.922;2.346;2024-02-23T03:46:11;99199.31;;;6.73;69.77
62600;BME280;48671;48.922;2.346;2024-02-23T03:48:37;99211.34;;;6.74;69.52
62600;BME280;48671;48.922;2.346;2024-02-23T03:51:05;99211.91;;;6.81;69.93
62600;BME280;48671;48.922;2.346;2024-02-23T03:53:31;99204.28;;;6.78;69.83
62600;BME280;48671;48.922;2.346;2024-02-23T03:55:57;99199.50;;;6.70;70.17
62600;BME280;48671;48.922;2.346;2024-02-23T03:58:22;99206.47;;;6.68;69.89
62600;BME280;48671;48.922;2.346;2024-02-23T04:00:47;99197.06;;;6.67;69.74
62600;BME280;48671;48.922;2.346;2024-02-23T04:03:13;99203.47;;;6.77;70.46
62600;BME280;48671;48.922;2.346;2024-02-23T04:05:38;99201.84;;;6.75;69.92
62600;BME280;48671;48.922;2.346;2024-02-23T04:08:04;99196.69;;;6.75;70.25
62600;BME280;48671;48.922;2.346;2024-02-23T04:10:29;99194.94;;;6.75;70.42
62600;BME280;48671;48.922;2.346;2024-02-23T04:12:54;99198.34;;;6.76;69.82
62600;BME280;48671;48.922;2.346;2024-02-23T04:15:20;99201.75;;;6.76;69.67
62600;BME280;48671;48.922;2.346;2024-02-23T04:17:46;99194.00;;;6.76;70.02
62600;BME280;48671;48.922;2.346;2024-02-23T04:20:11;99197.28;;;6.80;69.88
62600;BME280;48671;48.922;2.346;2024-02-23T04:22:37;99183.13;;;6.70;69.90
62600;BME280;48671;48.922;2.346;2024-02-23T04:25:03;99199.88;;;6.80;69.80
62600;BME280;48671;48.922;2.346;2024-02-23T04:27:28;99190.72;;;6.73;70.37
62600;BME280;48671;48.922;2.346;2024-02-23T04:29:54;99184.13;;;6.67;70.05
62600;BME280;48671;48.922;2.346;2024-02-23T04:32:19;99184.53;;;6.77;70.36
62600;BME280;48671;48.922;2.346;2024-02-23T04:34:44;99178.09;;;6.67;70.16
62600;BME280;48671;48.922;2.346;2024-02-23T04:37:10;99186.25;;;6.76;69.80
62600;BME280;48671;48.922;2.346;2024-02-23T04:39:35;99184.97;;;6.68;70.40
62600;BME280;48671;48.922;2.346;2024-02-23T04:42:00;99175.50;;;6.67;69.96
62600;BME280;48671;48.922;2.346;2024-02-23T04:44:26;99188.63;;;6.81;70.48
62600;BME280;48671;48.922;2.346;2024-02-23T04:46:51;99181.94;;;6.77;70.09
62600;BME280;48671;48.922;2.346;2024-02-23T04:49:16;99178.81;;;6.70;70.13
62600;BME280;48671;48.922;2.346;2024-02-23T04:51:42;99179.03;;;6.66;70.15
62600;BME280;48671;48.922;2.346;2024-02-23T04:54:07;99198.78;;;6.67;70.26
62600;BME280;48671;48.922;2.346;2024-02-23T04:56:32;99195.16;;;6.71;70.28
62600;BME280;48671;48.922;2.346;2024-02-23T04:58:58;99197.75;;;6.71;70.40
62600;BME280;48671;48.922;2.346;2024-02-23T05:01:24;99194.09;;;6.75;70.27
62600;BME280;48671;48.922;2.346;2024-02-23T05:03:49;99193.25;;;6.74;70.17
62600;BME280;48671;48.922;2.346;2024-02-23T05:06:14;99217.00;;;6.83;70.72
62600;BME280;48671;48.922;2.346;2024-02-23T05:08:40;99199.25;;;6.75;70.30
62600;BME280;48671;48.922;2.346;2024-02-23T05:11:06;99206.19;;;6.74;70.36
62600;BME280;48671;48.922;2.346;2024-02-23T05:13:31;99203.47;;;6.77;70.23
62600;BME280;48671;48.922;2.346;2024-02-23T05:15:57;99208.63;;;6.77;70.26
62600;BME280;48671;48.922;2.346;2024-02-23T05:18:22;99227.47;;;6.79;70.30
62600;BME280;48671;48.922;2.346;2024-02-23T05:20:48;99213.16;;;6.72;70.87
62600;BME280;48671;48.922;2.346;2024-02-23T05:23:14;99213.31;;;6.69;70.74
62600;BME280;48671;48.922;2.346;2024-02-23T05:25:41;99205.38;;;6.55;70.33
62600;BME280;48671;48.922;2.346;2024-02-23T05:28:06;99206.19;;;6.55;70.80
62600;BME280;48671;48.922;2.346;2024-02-23T05:30:32;99223.19;;;6.61;70.76
62600;BME280;48671;48.922;2.346;2024-02-23T05:32:58;99213.88;;;6.57;71.23
62600;BME280;48671;48.922;2.346;2024-02-23T05:35:26;99231.81;;;6.60;70.92
62600;BME280;48671;48.922;2.346;2024-02-23T05:37:52;99217.38;;;6.56;71.34
62600;BME280;48671;48.922;2.346;2024-02-23T05:40:17;99222.34;;;6.61;70.77
62600;BME280;48671;48.922;2.346;2024-02-23T05:42:43;99192.88;;;6.46;70.87
62600;BME280;48671;48.922;2.346;2024-02-23T05:45:09;99225.13;;;6.56;71.20
62600;BME280;48671;48.922;2.346;2024-02-23T05:47:35;99196.94;;;6.51;71.15
62600;BME280;48671;48.922;2.346;2024-02-23T05:50:02;99201.88;;;6.56;71.36
62600;BME280;48671;48.922;2.346;2024-02-23T05:52:28;99209.47;;;6.59;71.10
62600;BME280;48671;48.922;2.346;2024-02-23T05:54:53;99201.19;;;6.52;71.22
62600;BME280;48671;48.922;2.346;2024-02-23T05:57:21;99201.13;;;6.54;71.15
62600;BME280;48671;48.922;2.346;2024-02-23T05:59:46;99203.53;;;6.57;71.07
62600;BME280;48671;48.922;2.346;2024-02-23T06:02:12;99202.66;;;6.58;70.95
62600;BME280;48671;48.922;2.346;2024-02-23T06:04:37;99180.38;;;6.55;71.40
62600;BME280;48671;48.922;2.346;2024-02-23T06:07:03;99190.56;;;6.59;71.25
62600;BME280;48671;48.922;2.346;2024-02-23T06:09:28;99183.91;;;6.53;70.75
62600;BME280;48671;48.922;2.346;2024-02-23T06:11:53;99191.53;;;6.56;70.71
62600;BME280;48671;48.922;2.346;2024-02-23T06:14:19;99197.63;;;6.55;70.60
62600;BME280;48671;48.922;2.346;2024-02-23T06:16:44;99193.13;;;6.59;70.79
62600;BME280;48671;48.922;2.346;2024-02-23T06:19:09;99191.47;;;6.57;70.99
62600;BME280;48671;48.922;2.346;2024-02-23T06:21:35;99186.91;;;6.63;70.44
62600;BME280;48671;48.922;2.346;2024-02-23T06:24:00;99186.22;;;6.59;70.33
62600;BME280;48671;48.922;2.346;2024-02-23T06:26:25;99182.25;;;6.52;70.67
62600;BME280;48671;48.922;2.346;2024-02-23T06:28:51;99187.34;;;6.53;70.78
62600;BME280;48671;48.922;2.346;2024-02-23T06:31:16;99185.66;;;6.52;70.63
62600;BME280;48671;48.922;2.346;2024-02-23T06:33:41;99176.44;;;6.47;71.19
62600;BME280;48671;48.922;2.346;2024-02-23T06:36:07;99195.22;;;6.50;71.04
62600;BME280;48671;48.922;2.346;2024-02-23T06:38:33;99191.75;;;6.51;70.68
62600;BME280;48671;48.922;2.346;2024-02-23T06:40:58;99190.94;;;6.51;70.84
62600;BME280;48671;48.922;2.346;2024-02-23T06:43:24;99194.06;;;6.57;70.60
62600;BME280;48671;48.922;2.346;2024-02-23T06:45:49;99196.41;;;6.62;71.10
62600;BME280;48671;48.922;2.346;2024-02-23T06:48:15;99187.88;;;6.60;70.95
62600;BME280;48671;48.922;2.346;2024-02-23T06:50:40;99187.06;;;6.60;70.48
62600;BME280;48671;48.922;2.346;2024-02-23T06:53:05;99188.94;;;6.56;70.80
62600;BME280;48671;48.922;2.346;2024-02-23T06:55:32;99184.00;;;6.51;70.80
62600;BME280;48671;48.922;2.346;2024-02-23T06:57:58;99198.44;;;6.55;71.42
62600;BME280;48671;48.922;2.346;2024-02-23T07:00:23;99179.44;;;6.56;71.06
62600;BME280;48671;48.922;2.346;2024-02-23T07:02:48;99184.75;;;6.53;71.02
62600;BME280;48671;48.922;2.346;2024-02-23T07:05:14;99193.97;;;6.59;70.69
62600;BME280;48671;48.922;2.346;2024-02-23T07:07:39;99180.44;;;6.54;70.79
62600;BME280;48671;48.922;2.346;2024-02-23T07:10:06;99194.13;;;6.56;70.91
62600;BME280;48671;48.922;2.346;2024-02-23T07:12:31;99199.38;;;6.54;70.98
62600;BME280;48671;48.922;2.346;2024-02-23T07:14:57;99189.88;;;6.55;70.75
62600;BME280;48671;48.922;2.346;2024-02-23T07:17:22;99202.13;;;6.69;71.04
62600;BME280;48671;48.922;2.346;2024-02-23T07:19:48;99196.50;;;6.61;70.63
62600;BME280;48671;48.922;2.346;2024-02-23T07:22:13;99188.03;;;6.57;70.72
62600;BME280;48671;48.922;2.346;2024-02-23T07:24:41;99194.81;;;6.60;71.38
62600;BME280;48671;48.922;2.346;2024-02-23T07:27:06;99189.72;;;6.58;71.28
62600;BME280;48671;48.922;2.346;2024-02-23T07:29:32;99183.59;;;6.61;70.91
62600;BME280;48671;48.922;2.346;2024-02-23T07:31:57;99196.50;;;6.61;71.29
62600;BME280;48671;48.922;2.346;2024-02-23T07:34:22;99202.22;;;6.67;71.06
62600;BME280;48671;48.922;2.346;2024-02-23T07:36:51;99196.59;;;6.76;71.25
62600;BME280;48671;48.922;2.346;2024-02-23T07:39:17;99190.53;;;6.77;71.13
62600;BME280;48671;48.922;2.346;2024-02-23T07:41:42;99179.69;;;6.88;70.81
62600;BME280;48671;48.922;2.346;2024-02-23T07:44:08;99182.72;;;6.96;70.76
62600;BME280;48671;48.922;2.346;2024-02-23T07:46:33;99191.72;;;7.07;70.61
62600;BME280;48671;48.922;2.346;2024-02-23T07:48:58;99201.09;;;7.26;69.99
62600;BME280;48671;48.922;2.346;2024-02-23T07:51:24;99198.66;;;7.41;69.43
62600;BME280;48671;48.922;2.346;2024-02-23T07:53:49;99193.78;;;7.52;68.90
62600;BME280;48671;48.922;2.346;2024-02-23T07:56:14;99208.50;;;7.85;67.70
62600;BME280;48671;48.922;2.346;2024-02-23T07:58:40;99208.00;;;8.11;67.73
62600;BME280;48671;48.922;2.346;2024-02-23T08:01:05;99202.72;;;8.13;66.26
62600;BME280;48671;48.922;2.346;2024-02-23T08:03:31;99210.22;;;8.02;67.11
62600;BME280;48671;48.922;2.346;2024-02-23T08:05:56;99199.53;;;7.74;67.09
62600;BME280;48671;48.922;2.346;2024-02-23T08:08:22;99211.09;;;7.67;67.47
62600;BME280;48671;48.922;2.346;2024-02-23T08:10:49;99209.06;;;7.57;67.98
62600;BME280;48671;48.922;2.346;2024-02-23T08:13:14;99194.09;;;7.46;68.21
62600;BME280;48671;48.922;2.346;2024-02-23T08:15:40;99207.41;;;7.56;68.08
62600;BME280;48671;48.922;2.346;2024-02-23T08:18:05;99233.06;;;7.93;66.94
62600;BME280;48671;48.922;2.346;2024-02-23T08:20:31;99203.28;;;8.02;67.47
62600;BME280;48671;48.922;2.346;2024-02-23T08:22:56;99201.53;;;8.03;66.62
62600;BME280;48671;48.922;2.346;2024-02-23T08:25:22;99206.06;;;8.15;66.55
62600;BME280;48671;48.922;2.346;2024-02-23T08:27:47;99210.56;;;8.11;67.00
62600;BME280;48671;48.922;2.346;2024-02-23T08:30:14;99210.66;;;8.10;67.19
62600;BME280;48671;48.922;2.346;2024-02-23T08:32:40;99225.47;;;8.24;67.07
62600;BME280;48671;48.922;2.346;2024-02-23T08:35:06;99226.47;;;8.37;67.22
62600;BME280;48671;48.922;2.346;2024-02-23T08:37:32;99225.38;;;8.58;65.85
62600;BME280;48671;48.922;2.346;2024-02-23T08:39:57;99214.00;;;8.77;65.71
62600;BME280;48671;48.922;2.346;2024-02-23T08:42:22;99216.56;;;8.93;65.13
62600;BME280;48671;48.922;2.346;2024-02-23T08:44:48;99215.22;;;8.85;65.39
62600;BME280;48671;48.922;2.346;2024-02-23T08:47:13;99231.28;;;8.76;64.50
62600;BME280;48671;48.922;2.346;2024-02-23T08:49:38;99237.16;;;8.64;64.99
62600;BME280;48671;48.922;2.346;2024-02-23T08:52:04;99252.38;;;8.54;64.98
62600;BME280;48671;48.922;2.346;2024-02-23T08:54:30;99248.50;;;8.46;65.41
62600;BME280;48671;48.922;2.346;2024-02-23T08:56:55;99238.75;;;8.33;65.52
62600;BME280;48671;48.922;2.346;2024-02-23T08:59:21;99236.16;;;8.33;65.33
62600;BME280;48671;48.922;2.346;2024-02-23T09:01:46;99240.28;;;8.37;65.99
62600;BME280;48671;48.922;2.346;2024-02-23T09:04:12;99242.34;;;8.48;65.40
62600;BME280;48671;48.922;2.346;2024-02-23T09:06:38;99229.38;;;8.64;65.54
62600;BME280;48671;48.922;2.346;2024-02-23T09:09:03;99232.38;;;8.88;64.42
62600;BME280;48671;48.922;2.346;2024-02-23T09:11:28;99226.53;;;9.00;63.60
62600;BME280;48671;48.922;2.346;2024-02-23T09:13:53;99226.50;;;9.16;63.82
62600;BME280;48671;48.922;2.346;2024-02-23T09:16:19;99235.91;;;9.33;64.21
62600;BME280;48671;48.922;2.346;2024-02-23T09:18:45;99243.84;;;9.46;63.04
62600;BME280;48671;48.922;2.346;2024-02-23T09:21:11;99234.81;;;9.37;62.70
62600;BME280;48671;48.922;2.346;2024-02-23T09:23:36;99223.72;;;9.19;63.02
62600;BME280;48671;48.922;2.346;2024-02-23T09:26:01;99230.00;;;9.15;63.31
62600;BME280;48671;48.922;2.346;2024-02-23T09:28:26;99231.41;;;9.21;63.89
62600;BME280;48671;48.922;2.346;2024-02-23T09:30:52;99228.28;;;9.30;63.31
62600;BME280;48671;48.922;2.346;2024-02-23T09:33:17;99234.25;;;9.32;62.96
62600;BME280;48671;48.922;2.346;2024-02-23T09:35:42;99229.47;;;9.24;63.72
62600;BME280;48671;48.922;2.346;2024-02-23T09:38:08;99254.28;;;9.14;62.89
62600;BME280;48671;48.922;2.346;2024-02-23T09:40:33;99242.25;;;8.97;63.77
62600;BME280;48671;48.922;2.346;2024-02-23T09:42:59;99247.94;;;8.88;63.94
62600;BME280;48671;48.922;2.346;2024-02-23T09:45:25;99270.63;;;8.84;64.60
62600;BME280;48671;48.922;2.346;2024-02-23T09:47:53;99242.53;;;8.77;64.62
62600;BME280;48671;48.922;2.346;2024-02-23T09:50:20;99259.31;;;8.70;64.67
62600;BME280;48671;48.922;2.346;2024-02-23T09:52:47;99243.41;;;8.60;65.35
62600;BME280;48671;48.922;2.346;2024-02-23T09:55:16;99229.13;;;8.68;65.51
62600;BME280;48671;48.922;2.346;2024-02-23T09:57:42;99254.13;;;8.85;64.77
62600;BME280;48671;48.922;2.346;2024-02-23T10:00:08;99244.59;;;8.86;64.62
62600;BME280;48671;48.922;2.346;2024-02-23T10:02:34;99257.97;;;8.78;63.89
62600;BME280;48671;48.922;2.346;2024-02-23T10:05:01;99256.97;;;8.81;64.69
62600;BME280;48671;48.922;2.346;2024-02-23T10:07:27;99258.31;;;8.72;64.72
62600;BME280;48671;48.922;2.346;2024-02-23T10:09:53;99264.75;;;8.81;65.29
62600;BME280;48671;48.922;2.346;2024-02-23T10:12:20;99245.44;;;8.71;64.75
62600;BME280;48671;48.922;2.346;2024-02-23T10:14:46;99253.72;;;8.77;65.12
62600;BME280;48671;48.922;2.346;2024-02-23T10:17:11;99254.72;;;8.75;64.43
62600;BME280;48671;48.922;2.346;2024-02-23T10:19:37;99242.09;;;8.68;64.63
62600;BME280;48671;48.922;2.346;2024-02-23T10:22:03;99250.13;;;8.64;65.10
62600;BME280;48671;48.922;2.346;2024-02-23T10:24:29;99245.19;;;8.75;65.14
62600;BME280;48671;48.922;2.346;2024-02-23T10:26:54;99266.44;;;8.98;65.62
62600;BME280;48671;48.922;2.346;2024-02-23T10:29:20;99246.84;;;9.08;64.55
62600;BME280;48671;48.922;2.346;2024-02-23T10:31:47;99264.31;;;9.20;63.74
62600;BME280;48671;48.922;2.346;2024-02-23T10:34:17;99248.31;;;9.28;63.26
62600;BME280;48671;48.922;2.346;2024-02-23T10:36:44;99231.41;;;9.21;62.75
62600;BME280;48671;48.922;2.346;2024-02-23T10:39:15;99242.69;;;9.35;63.23
62600;BME280;48671;48.922;2.346;2024-02-23T10:41:46;99236.66;;;9.65;62.52
62600;BME280;48671;48.922;2.346;2024-02-23T10:44:16;99247.34;;;9.75;61.96
62600;BME280;48671;48.922;2.346;2024-02-23T10:46:42;99219.38;;;9.64;62.47
62600;BME280;48671;48.922;2.346;2024-02-23T10:49:07;99237.97;;;9.72;62.19
62600;BME280;48671;48.922;2.346;2024-02-23T10:51:33;99219.06;;;9.54;61.92
62600;BME280;48671;48.922;2.346;2024-02-23T10:53:59;99235.59;;;9.53;63.08
62600;BME280;48671;48.922;2.346;2024-02-23T10:56:25;99227.25;;;9.48;63.07
62600;BME280;48671;48.922;2.346;2024-02-23T10:58:51;99235.28;;;9.44;63.26
62600;BME280;48671;48.922;2.346;2024-02-23T11:01:21;99228.81;;;9.51;63.24
62600;BME280;48671;48.922;2.346;2024-02-23T11:03:48;99229.22;;;9.73;62.20
62600;BME280;48671;48.922;2.346;2024-02-23T11:06:16;99222.03;;;9.93;62.94
62600;BME280;48671;48.922;2.346;2024-02-23T11:08:46;99225.19;;;10.26;61.81
62600;BME280;48671;48.922;2.346;2024-02-23T11:11:11;99233.09;;;10.53;60.62
62600;BME280;48671;48.922;2.346;2024-02-23T11:13:39;99225.28;;;10.53;61.49
62600;BME280;48671;48.922;2.346;2024-02-23T11:16:06;99227.13;;;10.93;59.39
62600;BME280;48671;48.922;2.346;2024-02-23T11:18:35;99208.41;;;10.73;60.40
62600;BME280;48671;48.922;2.346;2024-02-23T11:21:03;99225.88;;;10.86;60.07
62600;BME280;48671;48.922;2.346;2024-02-23T11:23:43;99213.44;;;10.76;60.59
62600;BME280;48671;48.922;2.346;2024-02-23T11:26:12;99236.53;;;10.81;60.04
62600;BME280;48671;48.922;2.346;2024-02-23T11:28:48;99225.72;;;10.60;59.86
62600;BME280;48671;48.922;2.346;2024-02-23T11:31:24;99232.03;;;10.56;60.05
62600;BME280;48671;48.922;2.346;2024-02-23T11:33:51;99231.88;;;10.45;61.20
62600;BME280;48671;48.922;2.346;2024-02-23T11:36:25;99217.47;;;10.39;61.65
62600;BME280;48671;48.922;2.346;2024-02-23T11:38:53;99221.59;;;10.43;60.22
62600;BME280;48671;48.922;2.346;2024-02-23T11:41:21;99224.97;;;10.58;59.82
62600;BME280;48671;48.922;2.346;2024-02-23T11:43:47;99224.53;;;10.51;58.07
62600;BME280;48671;48.922;2.346;2024-02-23T11:46:15;99209.22;;;10.47;58.85
62600;BME280;48671;48.922;2.346;2024-02-23T11:48:40;99208.19;;;10.49;58.45
62600;BME280;48671;48.922;2.346;2024-02-23T11:51:06;99226.56;;;10.61;59.08
62600;BME280;48671;48.922;2.346;2024-02-23T11:53:32;99226.00;;;10.55;59.06
62600;BME280;48671;48.922;2.346;2024-02-23T11:55:58;99210.69;;;10.51;58.44
62600;BME280;48671;48.922;2.346;2024-02-23T11:58:23;99230.47;;;10.53;58.65
62600;BME280;48671;48.922;2.346;2024-02-23T12:00:51;99213.69;;;10.45;58.22
62600;BME280;48671;48.922;2.346;2024-02-23T12:03:16;99201.81;;;10.41;57.78
62600;BME280;48671;48.922;2.346;2024-02-23T12:05:42;99205.78;;;10.46;58.20
62600;BME280;48671;48.922;2.346;2024-02-23T12:08:08;99220.59;;;10.59;57.54
62600;BME280;48671;48.922;2.346;2024-02-23T12:10:34;99191.94;;;10.46;57.17
62600;BME280;48671;48.922;2.346;2024-02-23T12:12:59;99200.00;;;10.55;57.50
62600;BME280;48671;48.922;2.346;2024-02-23T12:15:25;99205.31;;;10.54;56.97
62600;BME280;48671;48.922;2.346;2024-02-23T12:17:50;99196.59;;;10.41;57.41
62600;BME280;48671;48.922;2.346;2024-02-23T12:20:16;99193.38;;;10.37;57.86
62600;BME280;48671;48.922;2.346;2024-02-23T12:22:41;99179.91;;;10.30;58.59
62600;BME280;48671;48.922;2.346;2024-02-23T12:25:07;99179.91;;;10.30;58.80
62600;BME280;48671;48.922;2.346;2024-02-23T12:27:32;99188.16;;;10.37;59.07
62600;BME280;48671;48.922;2.346;2024-02-23T12:29:58;99172.00;;;10.32;58.18
62600;BME280;48671;48.922;2.346;2024-02-23T12:32:24;99184.91;;;10.34;57.62
62600;BME280;48671;48.922;2.346;2024-02-23T12:34:50;99161.41;;;10.35;58.33
62600;BME280;48671;48.922;2.346;2024-02-23T12:37:18;99167.63;;;10.47;56.74
62600;BME280;48671;48.922;2.346;2024-02-23T12:39:44;99159.97;;;10.58;57.43
62600;BME280;48671;48.922;2.346;2024-02-23T12:42:10;99161.16;;;10.67;57.34
62600;BME280;48671;48.922;2.346;2024-02-23T12:44:35;99147.78;;;10.59;58.99
62600;BME280;48671;48.922;2.346;2024-02-23T12:47:01;99151.78;;;10.64;58.12
62600;BME280;48671;48.922;2.346;2024-02-23T12:49:26;99152.09;;;10.72;58.96
62600;BME280;48671;48.922;2.346;2024-02-23T12:51:52;99145.88;;;10.75;57.54
62600;BME280;48671;48.922;2.346;2024-02-23T12:54:17;99145.16;;;10.73;57.25
62600;BME280;48671;48.922;2.346;2024-02-23T12:56:43;99146.63;;;10.77;56.22
62600;BME280;48671;48.922;2.346;2024-02-23T12:59:08;99148.59;;;10.73;57.28
62600;BME280;48671;48.922;2.346;2024-02-23T13:01:35;99149.88;;;10.53;57.42